createdAt,value
2022-11-07T00:03:44.889Z,8.23
2022-11-07T00:08:47.507Z,8.22
2022-11-07T00:13:50.165Z,8.18
2022-11-07T00:18:55.617Z,8.18
2022-11-07T00:24:00.708Z,8.21
2022-11-07T00:29:03.425Z,8.17
2022-11-07T00:34:05.997Z,8.15
2022-11-07T00:39:08.492Z,8.1
2022-11-07T00:44:11.198Z,8.09
2022-11-07T00:49:13.898Z,8.09
2022-11-07T00:54:16.687Z,8.19
2022-11-07T00:59:19.420Z,8.18
2022-11-07T01:09:24.669Z,8.28
2022-11-07T01:14:27.400Z,8.25
2022-11-07T01:19:29.892Z,8.25
2022-11-07T01:24:32.680Z,8.31
2022-11-07T01:29:35.507Z,8.39
2022-11-07T01:34:38.343Z,8.37
2022-11-07T01:39:40.886Z,8.35
2022-11-07T01:44:43.608Z,8.34
2022-11-07T01:49:46.270Z,8.42
2022-11-07T01:54:48.965Z,8.47
2022-11-07T01:59:51.752Z,8.51
2022-11-07T02:04:54.388Z,8.54
2022-11-07T02:09:57.046Z,8.58
2022-11-07T02:14:59.691Z,8.64
2022-11-07T02:20:02.382Z,8.77
2022-11-07T02:25:05.249Z,8.77
2022-11-07T02:30:07.938Z,8.74
2022-11-07T02:35:10.419Z,8.75
2022-11-07T02:40:12.812Z,8.79
2022-11-07T02:45:20.952Z,8.81
2022-11-07T02:50:23.829Z,8.87
2022-11-07T02:55:26.371Z,8.97
2022-11-07T03:00:29.227Z,8.94
2022-11-07T03:05:31.732Z,9.01
2022-11-07T03:10:34.637Z,9.05
2022-11-07T03:15:37.412Z,9.15
2022-11-07T03:20:40.153Z,9.17
2022-11-07T03:25:42.839Z,9.13
2022-11-07T03:30:45.525Z,9.19
2022-11-07T03:35:48.127Z,9.22
2022-11-07T03:40:50.809Z,9.24
2022-11-07T03:45:53.423Z,9.28
2022-11-07T03:50:56.222Z,9.33
2022-11-07T03:55:59.005Z,9.37
2022-11-07T04:01:01.605Z,9.34
2022-11-07T04:06:04.105Z,9.42
2022-11-07T04:11:06.601Z,9.36
2022-11-07T04:16:12.428Z,9.27
2022-11-07T04:21:12.141Z,9.3
2022-11-07T04:26:15.025Z,9.31
2022-11-07T04:31:18.043Z,9.33
2022-11-07T04:36:20.853Z,9.34
2022-11-07T04:41:23.632Z,9.38
2022-11-07T04:46:26.409Z,9.4
2022-11-07T04:51:29.124Z,9.4
2022-11-07T04:56:34.391Z,9.45
2022-11-07T05:01:34.254Z,9.44
2022-11-07T05:06:37.061Z,9.5
2022-11-07T05:11:39.717Z,9.55
2022-11-07T05:16:42.406Z,9.58
2022-11-07T05:21:45.293Z,9.6
2022-11-07T05:26:47.767Z,9.61
2022-11-07T05:31:50.603Z,9.64
2022-11-07T05:36:53.325Z,9.66
2022-11-07T05:41:56.065Z,9.69
2022-11-07T05:46:58.576Z,9.67
2022-11-07T05:52:01.558Z,9.68
2022-11-07T05:57:04.107Z,9.69
2022-11-07T06:02:06.998Z,9.71
2022-11-07T06:07:09.586Z,9.75
2022-11-07T06:12:12.318Z,9.9
2022-11-07T06:17:14.973Z,9.87
2022-11-07T06:22:17.460Z,9.81
2022-11-07T06:27:19.919Z,9.88
2022-11-07T06:32:22.701Z,9.83
2022-11-07T06:37:25.347Z,9.88
2022-11-07T06:42:27.924Z,9.89
2022-11-07T06:47:30.654Z,9.92
2022-11-07T06:52:33.487Z,9.98
2022-11-07T06:57:36.268Z,10
2022-11-07T07:07:41.703Z,10.03
2022-11-07T07:12:44.336Z,10.14
2022-11-07T07:17:47.050Z,10.23
2022-11-07T07:22:55.404Z,10.39
2022-11-07T07:27:52.700Z,10.5
2022-11-07T07:32:55.258Z,10.58
2022-11-07T07:37:58.147Z,10.65
2022-11-07T07:43:00.902Z,10.84
2022-11-07T07:48:03.567Z,10.89
2022-11-07T07:53:08.993Z,10.76
2022-11-07T07:58:08.753Z,10.99
2022-11-07T08:08:14.383Z,11.4
2022-11-07T08:13:17.299Z,11.64
2022-11-07T08:18:19.893Z,11.9
2022-11-07T08:29:20.882Z,11.9
2022-11-07T08:34:23.973Z,12.23
2022-11-07T08:39:26.553Z,12.55
2022-11-07T08:44:29.305Z,12.79
2022-11-07T08:49:31.828Z,12.59
2022-11-07T08:54:34.342Z,12.71
2022-11-07T08:59:37.280Z,12.61
2022-11-07T09:04:40.120Z,12.79
2022-11-07T09:09:42.854Z,12.95
2022-11-07T09:14:45.879Z,12.93
2022-11-07T09:19:48.814Z,13.25
2022-11-07T09:29:54.683Z,13.36
2022-11-07T09:35:02.074Z,13.61
2022-11-07T09:40:00.161Z,13.8
2022-11-07T09:45:02.762Z,14.08
2022-11-07T09:50:05.529Z,14.34
2022-11-07T09:55:09.079Z,14.5
2022-11-07T10:00:11.903Z,14.57
2022-11-07T10:10:17.296Z,14.72
2022-11-07T10:15:19.958Z,14.73
2022-11-07T10:20:24.881Z,15.11
2022-11-07T10:25:27.999Z,15
2022-11-07T10:30:40.264Z,15.1
2022-11-07T10:35:48.514Z,15
2022-11-07T10:40:51.205Z,14.96
2022-11-07T10:45:53.937Z,15.04
2022-11-07T10:50:56.614Z,15.09
2022-11-07T10:55:59.363Z,14.89
2022-11-07T11:01:02.299Z,15.3
2022-11-07T11:11:07.405Z,15.74
2022-11-07T11:21:12.893Z,15.71
2022-11-07T11:26:15.377Z,15.7
2022-11-07T11:31:17.949Z,15.57
2022-11-07T11:41:23.398Z,15.35
2022-11-07T11:46:25.953Z,15.83
2022-11-07T11:51:28.835Z,16.09
2022-11-07T11:56:31.659Z,15.96
2022-11-07T12:01:34.354Z,15.64
2022-11-07T12:06:37.031Z,15.92
2022-11-07T12:11:39.804Z,16.05
2022-11-07T12:21:52.092Z,15.55
2022-11-07T12:26:57.791Z,15.62
2022-11-07T12:31:57.463Z,15.76
2022-11-07T12:37:00.184Z,16.01
2022-11-07T12:47:05.615Z,15.75
2022-11-07T12:52:08.203Z,15.53
2022-11-07T12:57:10.744Z,15.52
2022-11-07T13:02:13.504Z,15.62
2022-11-07T13:07:15.993Z,15.43
2022-11-07T13:12:18.665Z,15.33
2022-11-07T13:17:21.316Z,15.27
2022-11-07T13:22:23.930Z,15.29
2022-11-07T13:27:26.882Z,15.41
2022-11-07T13:32:29.643Z,15.17
2022-11-07T13:37:32.382Z,15.04
2022-11-07T13:42:34.770Z,14.95
2022-11-07T13:47:37.403Z,15.05
2022-11-07T13:52:40.124Z,15.16
2022-11-07T13:57:42.731Z,15.01
2022-11-07T14:02:45.857Z,15.01
2022-11-07T14:07:47.861Z,14.92
2022-11-07T14:12:50.646Z,14.86
2022-11-07T14:17:53.153Z,14.9
2022-11-07T14:22:56.329Z,14.84
2022-11-07T14:27:59.381Z,14.88
2022-11-07T14:33:02.071Z,14.78
2022-11-07T14:38:04.694Z,14.68
2022-11-07T14:43:07.664Z,14.62
2022-11-07T14:48:10.638Z,14.56
2022-11-07T14:53:13.477Z,14.53
2022-11-07T14:58:16.426Z,14.58
2022-11-07T15:03:18.745Z,14.48
2022-11-07T15:08:21.174Z,14.42
2022-11-07T15:13:23.822Z,14.44
2022-11-07T15:18:26.940Z,14.41
2022-11-07T15:23:29.148Z,14.36
2022-11-07T15:28:31.711Z,14.3
2022-11-07T15:33:34.334Z,14.23
2022-11-07T15:38:36.932Z,14.26
2022-11-07T15:43:39.607Z,14.19
2022-11-07T15:48:42.234Z,14.18
2022-11-07T15:53:45.547Z,14.18
2022-11-07T15:59:06.426Z,14.09
2022-11-07T16:04:09.389Z,14.02
2022-11-07T16:09:12.042Z,13.96
2022-11-07T16:14:42.035Z,13.93
2022-11-07T16:19:17.285Z,13.91
2022-11-07T16:24:19.885Z,13.72
2022-11-07T16:29:22.727Z,13.64
2022-11-07T16:34:25.561Z,13.5
2022-11-07T16:39:28.250Z,13.35
2022-11-07T16:50:29.367Z,13.19
2022-11-07T16:55:32.011Z,13.06
2022-11-07T17:00:34.806Z,13.06
2022-11-07T17:05:37.428Z,13.06
2022-11-07T17:10:40.108Z,13.09
2022-11-07T17:15:42.909Z,13.16
2022-11-07T17:20:52.787Z,13.17
2022-11-07T17:25:48.078Z,13.18
2022-11-07T17:30:50.907Z,13.17
2022-11-07T17:35:53.629Z,13.28
2022-11-07T17:40:56.204Z,13.37
2022-11-07T17:45:58.898Z,13.42
2022-11-07T17:51:01.390Z,13.42
2022-11-07T17:56:04.058Z,13.44
2022-11-07T18:01:06.547Z,13.48
2022-11-07T18:06:09.328Z,13.56
2022-11-07T18:11:11.948Z,13.58
2022-11-07T18:16:14.659Z,13.59
2022-11-07T18:21:17.469Z,13.6
2022-11-07T18:26:20.168Z,13.66
2022-11-07T18:31:22.761Z,13.62
2022-11-07T18:36:25.554Z,13.56
2022-11-07T18:41:28.153Z,13.55
2022-11-07T18:46:30.749Z,13.47
2022-11-07T18:51:33.562Z,13.38
2022-11-07T18:56:36.466Z,13.32
2022-11-07T19:01:39.205Z,13.3
2022-11-07T19:06:41.663Z,13.22
2022-11-07T19:11:44.245Z,13.13
2022-11-07T19:16:46.996Z,13.04
2022-11-07T19:21:49.883Z,13.05
2022-11-07T19:26:52.542Z,13.06
2022-11-07T19:31:55.328Z,13.11
2022-11-07T19:36:58.042Z,13.11
2022-11-07T19:42:00.999Z,13.09
2022-11-07T19:47:03.624Z,13.1
2022-11-07T19:52:06.366Z,13.15
2022-11-07T19:57:09.280Z,13.15
2022-11-07T20:02:31.472Z,13.17
2022-11-07T20:07:14.450Z,13.15
2022-11-07T20:12:17.037Z,13.09
2022-11-07T20:17:19.664Z,13.11
2022-11-07T20:22:22.357Z,13.1
2022-11-07T20:27:24.946Z,13.1
2022-11-07T20:32:27.740Z,13.09
2022-11-07T20:37:30.420Z,13.12
2022-11-07T20:42:32.810Z,13.12
2022-11-07T20:47:35.725Z,13.11
2022-11-07T20:52:38.433Z,13.19
2022-11-07T20:57:40.885Z,13.14
2022-11-07T21:02:43.262Z,13.06
2022-11-07T21:07:46.286Z,12.89
2022-11-07T21:12:48.881Z,12.73
2022-11-07T21:17:51.469Z,12.68
2022-11-07T21:22:54.066Z,12.71
2022-11-07T21:27:56.876Z,12.81
2022-11-07T21:32:59.497Z,12.83
2022-11-07T21:38:02.163Z,12.83
2022-11-07T21:43:04.741Z,12.89
2022-11-07T21:48:07.292Z,12.87
2022-11-07T21:53:09.960Z,12.82
2022-11-07T21:58:12.653Z,12.78
2022-11-07T22:03:27.481Z,12.72
2022-11-07T22:08:23.657Z,12.62
2022-11-07T22:13:22.944Z,12.55
2022-11-07T22:18:25.645Z,12.47
2022-11-07T22:23:28.214Z,12.35
2022-11-07T22:28:30.922Z,12.31
2022-11-07T22:33:33.485Z,12.25
2022-11-07T22:38:36.147Z,12.21
2022-11-07T22:43:38.773Z,12.11
2022-11-07T22:48:41.383Z,12.04
2022-11-07T22:53:44.101Z,12
2022-11-07T22:58:46.768Z,11.97
2022-11-07T23:03:49.218Z,11.87
2022-11-07T23:08:51.918Z,11.87
2022-11-07T23:13:54.440Z,11.85
2022-11-07T23:18:57.006Z,11.81
2022-11-07T23:23:59.629Z,11.82
2022-11-07T23:29:05.932Z,11.78
2022-11-07T23:34:07.816Z,11.76
2022-11-07T23:39:10.447Z,11.78
2022-11-07T23:44:12.983Z,11.8
2022-11-07T23:49:15.688Z,11.78
2022-11-07T23:59:21.257Z,11.75
